Time;durP1;ratioP1;P1;durP2;ratioP2;P2;SDS_P1;SDS_P2;PMS_P1;PMS_P2;Temp;Humidity;BMP_temperature;BMP_pressure;BME280_temperature;BME280_humidity;BME280_pressure;Samples;Min_cycle;Max_cycle;Signal;HPM_P1;HPM_P2
2024/03/20 00:02:08;;;;;;;4.03;2.50;;;12.10;62.40;;;;;;5014024;28;20064;-71
2024/03/20 00:04:35;;;;;;;4.97;2.88;;;12.00;62.30;;;;;;5007627;28;20049;-69
2024/03/20 00:07:02;;;;;;;4.85;2.10;;;12.00;62.30;;;;;;4994357;28;20045;-69
2024/03/20 00:09:31;;;;;;;1.92;1.73;;;12.00;62.30;;;;;;4996592;28;20057;-69
2024/03/20 00:11:58;;;;;;;6.22;3.15;;;11.90;62.30;;;;;;5011890;28;20867;-69
2024/03/20 00:14:26;;;;;;;4.50;2.20;;;11.90;62.30;;;;;;5004979;28;20041;-69
2024/03/20 00:16:53;;;;;;;5.90;2.15;;;11.80;62.20;;;;;;5012693;28;20099;-69
2024/03/20 00:19:20;;;;;;;1.92;1.70;;;11.80;62.20;;;;;;5013755;28;20056;-69
2024/03/20 00:21:47;;;;;;;8.65;3.60;;;11.80;62.30;;;;;;5012091;28;20058;-69
2024/03/20 00:24:15;;;;;;;3.92;2.22;;;11.80;62.40;;;;;;5005441;28;20052;-69
2024/03/20 00:26:43;;;;;;;5.22;2.20;;;11.70;62.40;;;;;;5012472;28;20062;-69
2024/03/20 00:29:11;;;;;;;3.22;2.00;;;11.70;62.40;;;;;;5012811;28;20068;-69
2024/03/20 00:31:38;;;;;;;3.20;2.15;;;11.70;62.60;;;;;;5007099;28;20425;-69
2024/03/20 00:34:05;;;;;;;10.85;3.30;;;11.70;62.70;;;;;;5012311;28;20056;-70
2024/03/20 00:36:32;;;;;;;2.80;1.58;;;11.70;62.70;;;;;;5003498;28;20184;-69
2024/03/20 00:38:59;;;;;;;4.57;2.10;;;11.70;62.60;;;;;;5011229;28;20111;-70
2024/03/20 00:41:26;;;;;;;11.25;4.63;;;11.70;62.70;;;;;;4999202;28;20497;-68
2024/03/20 00:43:54;;;;;;;2.15;1.58;;;11.70;62.70;;;;;;5010727;28;20590;-68
2024/03/20 00:46:22;;;;;;;8.35;3.70;;;11.70;62.60;;;;;;5004090;28;20053;-68
2024/03/20 00:48:49;;;;;;;5.07;2.70;;;11.70;62.60;;;;;;5013448;28;20061;-72
2024/03/20 00:51:16;;;;;;;2.72;2.10;;;11.70;62.40;;;;;;4995756;28;20168;-69
2024/03/20 00:53:44;;;;;;;6.50;3.13;;;11.60;62.40;;;;;;5012322;28;20053;-68
2024/03/20 00:56:11;;;;;;;4.03;2.30;;;11.60;62.40;;;;;;4993247;28;20077;-68
2024/03/20 00:58:38;;;;;;;3.65;2.72;;;11.50;62.50;;;;;;5005060;28;20069;-70
2024/03/20 01:01:07;;;;;;;8.23;3.10;;;11.50;62.40;;;;;;5013370;28;20049;-69
2024/03/20 01:03:34;;;;;;;13.90;4.35;;;11.40;62.40;;;;;;5007830;28;20046;-67
2024/03/20 01:06:02;;;;;;;4.10;2.22;;;11.40;62.50;;;;;;4996291;28;20056;-67
2024/03/20 01:08:29;;;;;;;4.88;3.15;;;11.30;62.50;;;;;;5001216;28;20054;-68
2024/03/20 01:10:57;;;;;;;4.80;2.90;;;11.30;62.50;;;;;;5013594;28;20523;-69
2024/03/20 01:13:24;;;;;;;6.43;3.05;;;11.30;62.60;;;;;;5009663;28;20060;-69
2024/03/20 01:15:51;;;;;;;7.28;3.03;;;11.20;62.50;;;;;;5012143;28;20725;-69
2024/03/20 01:18:20;;;;;;;3.28;2.42;;;11.20;62.50;;;;;;5001524;28;20057;-70
2024/03/20 01:20:47;;;;;;;4.82;2.95;;;11.20;62.60;;;;;;5013414;28;20660;-70
2024/03/20 01:23:15;;;;;;;12.65;3.50;;;11.20;62.40;;;;;;5014051;28;21097;-68
2024/03/20 01:25:43;;;;;;;6.38;2.80;;;11.20;62.40;;;;;;5014560;28;20054;-68
2024/03/20 01:28:11;;;;;;;3.28;2.40;;;11.20;62.40;;;;;;5007535;28;20664;-67
2024/03/20 01:30:38;;;;;;;7.38;3.60;;;11.10;62.40;;;;;;5007562;28;20103;-67
2024/03/20 01:33:05;;;;;;;2.50;2.08;;;11.10;63.20;;;;;;5008584;28;20535;-69
2024/03/20 01:35:34;;;;;;;2.83;2.28;;;11.10;62.40;;;;;;4996278;28;20057;-67
2024/03/20 01:38:01;;;;;;;6.88;2.70;;;11.10;62.50;;;;;;5009116;28;20135;-69
2024/03/20 01:40:28;;;;;;;6.47;2.78;;;11.10;62.50;;;;;;5004793;28;20064;-69
2024/03/20 01:42:56;;;;;;;3.67;2.17;;;11.00;62.50;;;;;;5005669;28;20520;-68
2024/03/20 01:45:23;;;;;;;8.52;2.83;;;11.00;62.60;;;;;;5013817;28;20527;-70
2024/03/20 01:47:50;;;;;;;10.40;3.15;;;11.00;62.50;;;;;;5017059;28;20633;-69
2024/03/20 01:50:18;;;;;;;4.30;2.05;;;11.00;62.60;;;;;;4984248;28;20461;-68
2024/03/20 01:52:54;;;;;;;4.00;2.70;;;11.00;62.50;;;;;;4997717;28;20049;-68
2024/03/20 01:55:23;;;;;;;4.13;2.45;;;11.00;62.50;;;;;;5015290;28;20053;-68
2024/03/20 01:57:51;;;;;;;4.20;2.55;;;11.00;62.60;;;;;;5016157;28;20523;-68
2024/03/20 02:00:23;;;;;;;6.38;2.35;;;10.90;62.50;;;;;;5009153;28;20062;-69
2024/03/20 02:02:51;;;;;;;4.57;2.85;;;10.90;62.60;;;;;;4999328;28;20441;-68
2024/03/20 02:05:19;;;;;;;4.03;2.25;;;10.90;62.50;;;;;;5017929;28;20107;-69
2024/03/20 02:07:46;;;;;;;2.30;2.08;;;10.90;62.50;;;;;;5013533;28;20053;-68
2024/03/20 02:10:15;;;;;;;3.15;1.98;;;10.90;62.40;;;;;;5011787;28;20478;-68
2024/03/20 02:12:42;;;;;;;4.32;2.78;;;10.90;62.40;;;;;;5011284;28;20112;-68
2024/03/20 02:15:10;;;;;;;4.95;2.53;;;10.90;62.50;;;;;;5014398;28;20443;-69
2024/03/20 02:17:38;;;;;;;13.32;3.40;;;10.80;62.40;;;;;;5009771;28;20049;-68
2024/03/20 02:20:06;;;;;;;6.30;3.60;;;10.80;62.40;;;;;;5017068;28;20053;-67
2024/03/20 02:22:41;;;;;;;9.73;3.10;;;10.80;62.40;;;;;;4988526;28;22021;-68
2024/03/20 02:25:09;;;;;;;3.67;2.90;;;10.80;62.40;;;;;;5014829;28;20084;-70
2024/03/20 02:27:36;;;;;;;3.83;2.70;;;10.80;62.30;;;;;;4996476;28;20068;-69
2024/03/20 02:30:05;;;;;;;7.22;2.83;;;10.80;62.30;;;;;;5013397;28;20053;-68
2024/03/20 02:32:32;;;;;;;7.25;3.25;;;10.80;62.30;;;;;;5007146;28;20596;-70
2024/03/20 02:35:00;;;;;;;5.00;2.47;;;10.80;62.20;;;;;;5013298;28;20060;-68
2024/03/20 02:37:27;;;;;;;3.50;2.40;;;10.80;62.20;;;;;;5012587;28;20510;-68
2024/03/20 02:39:56;;;;;;;2.72;2.13;;;10.80;62.20;;;;;;5015145;28;20053;-71
2024/03/20 02:42:23;;;;;;;174.15;46.72;;;10.80;62.20;;;;;;5008789;28;20064;-73
2024/03/20 02:44:51;;;;;;;3.55;1.95;;;10.80;63.10;;;;;;5010141;28;20471;-68
2024/03/20 02:47:19;;;;;;;2.58;2.30;;;10.80;62.20;;;;;;5010588;28;20535;-70
2024/03/20 02:49:47;;;;;;;108.45;20.08;;;10.80;62.20;;;;;;4998709;28;20115;-72
2024/03/20 02:52:14;;;;;;;8.75;2.47;;;10.80;62.30;;;;;;5008810;28;20058;-68
2024/03/20 02:54:41;;;;;;;3.30;2.42;;;10.80;62.30;;;;;;5012980;28;20057;-69
2024/03/20 02:57:10;;;;;;;30.80;6.63;;;10.70;62.40;;;;;;5014676;28;20054;-68
2024/03/20 02:59:37;;;;;;;4.15;2.60;;;10.70;62.20;;;;;;5012998;28;20049;-70
2024/03/20 03:02:05;;;;;;;4.63;2.60;;;10.70;62.20;;;;;;5013473;28;20057;-69
2024/03/20 03:04:32;;;;;;;6.88;2.72;;;10.70;62.30;;;;;;4988608;28;20865;-71
2024/03/20 03:06:59;;;;;;;3.95;2.33;;;10.70;62.30;;;;;;5012188;28;20046;-69
2024/03/20 03:09:26;;;;;;;4.45;2.58;;;10.70;62.30;;;;;;5016575;28;20053;-72
2024/03/20 03:11:54;;;;;;;3.95;2.38;;;10.70;62.30;;;;;;5012176;28;20065;-70
2024/03/20 03:14:22;;;;;;;5.25;4.15;;;10.70;63.10;;;;;;4990201;28;20103;-68
2024/03/20 03:16:49;;;;;;;9.60;4.70;;;10.70;63.00;;;;;;5014194;28;20045;-68
2024/03/20 03:19:17;;;;;;;3.58;2.08;;;10.70;62.20;;;;;;4995611;28;20500;-70
2024/03/20 03:21:44;;;;;;;2.60;2.08;;;10.70;62.20;;;;;;5014837;28;20085;-69
2024/03/20 03:24:12;;;;;;;4.80;3.15;;;10.70;62.30;;;;;;5000203;28;20107;-68
2024/03/20 03:26:39;;;;;;;8.48;2.60;;;10.70;62.20;;;;;;4995245;28;20049;-68
2024/03/20 03:29:06;;;;;;;5.55;1.67;;;10.70;62.20;;;;;;5008995;28;20490;-70
2024/03/20 03:31:36;;;;;;;9.85;2.22;;;10.60;62.20;;;;;;4994458;28;20050;-69
2024/03/20 03:34:03;;;;;;;3.70;2.42;;;10.60;62.20;;;;;;5008607;28;20054;-69
2024/03/20 03:36:32;;;;;;;7.90;1.85;;;10.60;62.30;;;;;;4995137;28;20060;-70
2024/03/20 03:38:59;;;;;;;4.35;2.15;;;10.60;62.30;;;;;;5011423;28;20135;-69
2024/03/20 03:41:27;;;;;;;3.35;2.00;;;10.60;62.40;;;;;;5014020;28;20095;-71
2024/03/20 03:43:54;;;;;;;2.22;1.70;;;10.60;62.30;;;;;;4997029;28;20606;-68
2024/03/20 03:46:21;;;;;;;3.22;2.88;;;10.60;62.20;;;;;;5007567;28;20053;-69
2024/03/20 03:48:50;;;;;;;5.00;2.78;;;10.50;62.10;;;;;;5003694;28;20107;-71
2024/03/20 03:51:16;;;;;;;5.65;2.70;;;10.50;62.10;;;;;;5015003;28;20053;-71
2024/03/20 03:53:44;;;;;;;7.93;2.50;;;10.50;62.10;;;;;;4994840;28;20064;-68
2024/03/20 03:56:11;;;;;;;4.15;2.90;;;10.50;62.10;;;;;;4993227;28;20127;-72
2024/03/20 03:58:38;;;;;;;3.20;1.98;;;10.50;62.10;;;;;;5009770;28;20532;-70
2024/03/20 04:01:07;;;;;;;1.90;1.35;;;10.50;62.20;;;;;;5013528;28;20053;-72
2024/03/20 04:03:34;;;;;;;4.38;2.42;;;10.40;62.20;;;;;;5012255;28;20049;-69
2024/03/20 04:06:03;;;;;;;4.70;2.38;;;10.40;62.30;;;;;;5013420;28;20064;-68
2024/03/20 04:08:30;;;;;;;7.63;2.20;;;10.30;62.20;;;;;;5007014;28;20573;-71
2024/03/20 04:10:57;;;;;;;7.80;3.75;;;10.40;62.20;;;;;;5014968;28;20057;-67
2024/03/20 04:13:25;;;;;;;3.67;2.25;;;10.40;62.30;;;;;;5014239;28;20061;-67
2024/03/20 04:15:53;;;;;;;9.15;4.28;;;10.30;62.20;;;;;;5010317;28;20049;-72
2024/03/20 04:18:21;;;;;;;5.28;2.45;;;10.30;62.20;;;;;;5006433;28;20111;-68
2024/03/20 04:20:48;;;;;;;5.80;2.58;;;10.30;62.30;;;;;;5010185;28;20057;-68
2024/03/20 04:23:17;;;;;;;8.43;1.73;;;10.30;62.20;;;;;;5011454;28;20136;-73
2024/03/20 04:25:44;;;;;;;4.80;2.22;;;10.30;62.30;;;;;;5011280;28;20057;-69
2024/03/20 04:28:11;;;;;;;4.18;1.70;;;10.30;63.20;;;;;;5011052;28;20084;-70
2024/03/20 04:30:39;;;;;;;1.80;1.48;;;10.30;62.50;;;;;;5007613;28;20045;-71
2024/03/20 04:33:07;;;;;;;2.33;1.63;;;10.30;62.40;;;;;;5009622;28;20160;-69
2024/03/20 04:35:34;;;;;;;4.28;2.20;;;10.40;62.50;;;;;;5012403;28;20053;-69
2024/03/20 04:38:02;;;;;;;4.47;2.88;;;10.40;63.20;;;;;;5012943;28;20060;-71
2024/03/20 04:40:31;;;;;;;4.05;2.42;;;10.40;62.40;;;;;;5004733;28;20639;-68
2024/03/20 04:43:00;;;;;;;7.18;2.55;;;10.40;62.30;;;;;;4994891;28;20152;-68
2024/03/20 04:45:26;;;;;;;10.60;5.20;;;10.40;62.20;;;;;;5010563;28;20069;-68
2024/03/20 04:47:53;;;;;;;6.85;3.65;;;10.40;62.20;;;;;;5008873;28;20095;-68
2024/03/20 04:50:21;;;;;;;5.32;3.47;;;10.40;62.10;;;;;;4986813;28;20046;-68
2024/03/20 04:52:48;;;;;;;20.30;3.50;;;10.30;62.10;;;;;;5009361;28;20068;-68
2024/03/20 04:55:15;;;;;;;4.28;2.67;;;10.20;62.20;;;;;;5015158;28;20048;-69
2024/03/20 04:57:44;;;;;;;9.52;3.20;;;10.20;62.20;;;;;;4993434;28;20049;-70
2024/03/20 05:00:15;;;;;;;8.07;3.67;;;10.20;62.20;;;;;;5008292;28;20324;-70
2024/03/20 05:02:42;;;;;;;3.80;2.75;;;10.20;62.20;;;;;;5004836;28;20168;-74
2024/03/20 05:05:10;;;;;;;7.57;2.72;;;10.10;62.10;;;;;;5009885;28;20053;-71
2024/03/20 05:07:38;;;;;;;8.70;3.55;;;10.10;62.10;;;;;;4992376;28;20053;-68
2024/03/20 05:10:06;;;;;;;3.80;2.20;;;10.10;62.20;;;;;;5010555;28;20111;-71
2024/03/20 05:12:32;;;;;;;6.30;2.80;;;10.20;62.30;;;;;;5009870;28;20111;-68
2024/03/20 05:15:02;;;;;;;5.05;3.00;;;10.20;62.30;;;;;;4995883;28;20060;-69
2024/03/20 05:17:30;;;;;;;4.07;1.92;;;10.20;62.60;;;;;;4990123;28;20095;-69
2024/03/20 05:19:57;;;;;;;8.57;3.00;;;10.20;62.40;;;;;;4998331;28;20049;-67
2024/03/20 05:22:25;;;;;;;6.03;3.72;;;10.20;62.30;;;;;;5008854;28;20060;-68
2024/03/20 05:24:51;;;;;;;4.70;2.72;;;10.20;62.20;;;;;;5012849;28;20049;-71
2024/03/20 05:27:19;;;;;;;34.10;3.45;;;10.20;62.30;;;;;;4997247;28;20690;-71
2024/03/20 05:29:45;;;;;;;5.20;2.95;;;10.20;62.20;;;;;;5012971;28;20061;-68
2024/03/20 05:32:15;;;;;;;9.93;3.88;;;10.20;62.10;;;;;;5007248;28;20086;-70
2024/03/20 05:34:41;;;;;;;6.20;3.85;;;10.20;62.20;;;;;;5015469;28;20119;-71
2024/03/20 05:37:08;;;;;;;4.03;2.70;;;10.20;62.20;;;;;;4989306;28;20186;-70
2024/03/20 05:39:35;;;;;;;5.63;3.13;;;10.20;62.20;;;;;;5013019;28;20088;-69
2024/03/20 05:42:04;;;;;;;6.78;3.58;;;10.20;62.20;;;;;;5010615;28;20480;-70
2024/03/20 05:44:30;;;;;;;7.85;3.30;;;10.20;62.10;;;;;;4988280;28;20054;-72
2024/03/20 05:46:57;;;;;;;5.97;3.55;;;10.30;62.10;;;;;;5016015;28;20065;-69
2024/03/20 05:49:25;;;;;;;4.68;2.58;;;10.30;62.20;;;;;;5043226;28;20420;-69
2024/03/20 05:51:52;;;;;;;4.80;3.40;;;10.40;62.20;;;;;;4998648;28;20436;-68
2024/03/20 05:54:18;;;;;;;7.18;2.88;;;10.40;62.00;;;;;;5004532;28;20122;-68
2024/03/20 05:56:46;;;;;;;8.35;3.88;;;10.40;62.00;;;;;;5001982;28;20056;-68
2024/03/20 05:59:13;;;;;;;6.53;3.20;;;10.40;61.90;;;;;;5009512;28;20053;-70
2024/03/20 06:01:40;;;;;;;4.72;2.65;;;10.50;62.00;;;;;;5008953;28;20071;-70
2024/03/20 06:04:08;;;;;;;8.55;2.90;;;10.50;61.90;;;;;;4995386;28;20050;-70
2024/03/20 06:06:37;;;;;;;18.85;3.50;;;10.60;62.00;;;;;;5008046;28;21241;-72
2024/03/20 06:09:04;;;;;;;5.28;3.53;;;10.60;61.90;;;;;;5009013;28;20114;-65
2024/03/20 06:11:43;;;;;;;11.07;3.28;;;10.60;62.60;;;;;;5013319;28;20065;-73
2024/03/20 06:14:10;;;;;;;8.38;3.75;;;10.70;61.90;;;;;;4995912;28;20045;-72
2024/03/20 06:16:37;;;;;;;4.80;2.90;;;10.70;61.90;;;;;;5008988;28;20053;-72
2024/03/20 06:19:04;;;;;;;5.65;2.78;;;10.80;61.90;;;;;;4980228;28;20050;-73
2024/03/20 06:21:31;;;;;;;4.93;3.67;;;10.80;61.80;;;;;;5014055;28;20551;-75
2024/03/20 06:24:01;;;;;;;2.85;2.58;;;10.90;62.70;;;;;;5018518;28;20056;-73
2024/03/20 06:26:27;;;;;;;8.95;3.50;;;11.00;61.80;;;;;;4988768;28;20159;-73
2024/03/20 06:28:55;;;;;;;5.53;2.55;;;11.00;61.70;;;;;;5015148;28;20060;-75
2024/03/20 06:31:21;;;;;;;6.25;3.15;;;11.10;61.70;;;;;;4994320;28;20076;-75
2024/03/20 06:33:49;;;;;;;4.65;3.45;;;11.10;61.70;;;;;;5007039;28;20168;-74
2024/03/20 06:36:16;;;;;;;4.55;2.88;;;11.20;61.70;;;;;;5002194;28;20049;-73
2024/03/20 06:38:43;;;;;;;7.13;2.90;;;11.30;61.80;;;;;;4993669;28;20056;-77
2024/03/20 06:41:13;;;;;;;9.25;3.05;;;11.40;61.70;;;;;;4997573;28;20152;-76
2024/03/20 06:43:40;;;;;;;4.22;2.70;;;11.40;61.60;;;;;;5012460;28;20068;-75
2024/03/20 06:46:06;;;;;;;7.25;3.10;;;11.50;61.60;;;;;;5012040;28;20061;-76
2024/03/20 06:48:34;;;;;;;3.65;2.55;;;11.60;61.50;;;;;;5004683;28;20062;-77
2024/03/20 06:51:00;;;;;;;5.10;3.05;;;11.70;61.40;;;;;;5014255;28;20068;-75
2024/03/20 06:53:27;;;;;;;4.88;2.85;;;11.70;61.30;;;;;;4994176;28;20424;-75
2024/03/20 06:55:55;;;;;;;5.53;3.10;;;11.80;61.30;;;;;;5015046;28;20050;-74
2024/03/20 06:58:24;;;;;;;7.72;3.67;;;11.90;61.40;;;;;;5007319;28;20057;-78
2024/03/20 07:00:50;;;;;;;6.60;3.00;;;11.90;61.30;;;;;;5010035;28;20155;-75
2024/03/20 07:03:18;;;;;;;6.55;3.13;;;11.90;61.30;;;;;;5011370;28;20123;-77
2024/03/20 07:05:45;;;;;;;5.15;2.67;;;12.00;61.40;;;;;;5013727;28;20073;-73
2024/03/20 07:08:12;;;;;;;18.15;3.55;;;12.10;61.30;;;;;;5008253;28;20053;-72
2024/03/20 07:10:39;;;;;;;6.15;2.60;;;12.30;61.30;;;;;;5009536;28;20100;-75
2024/03/20 07:13:08;;;;;;;4.97;2.53;;;12.40;61.30;;;;;;4999655;28;20493;-77
2024/03/20 07:15:36;;;;;;;3.08;2.17;;;12.60;61.20;;;;;;4996288;28;20054;-79
2024/03/20 07:18:04;;;;;;;4.88;2.60;;;12.70;61.00;;;;;;4997660;28;20053;-75
2024/03/20 07:20:30;;;;;;;3.08;2.25;;;12.80;60.90;;;;;;4989544;28;20176;-75
2024/03/20 07:22:58;;;;;;;3.78;2.10;;;12.90;60.90;;;;;;5015030;28;20049;-77
2024/03/20 07:25:27;;;;;;;4.35;2.10;;;13.00;61.00;;;;;;5015560;28;20064;-74
2024/03/20 07:27:54;;;;;;;4.75;2.28;;;13.10;60.90;;;;;;5008932;28;20065;-74
2024/03/20 07:30:21;;;;;;;4.15;2.10;;;13.30;60.90;;;;;;5006977;28;20053;-73
2024/03/20 07:32:50;;;;;;;11.55;2.40;;;13.40;60.80;;;;;;5010600;28;20046;-72
2024/03/20 07:35:22;;;;;;;5.57;2.88;;;13.50;60.70;;;;;;5001429;28;20119;-75
2024/03/20 07:37:51;;;;;;;2.10;1.42;;;13.70;60.60;;;;;;5008389;28;20167;-74
2024/03/20 07:40:21;;;;;;;4.90;1.83;;;13.80;60.50;;;;;;4995974;28;20041;-74
2024/03/20 07:42:50;;;;;;;2.25;1.83;;;13.90;60.30;;;;;;5015024;28;20049;-74
2024/03/20 07:45:16;;;;;;;2.88;1.50;;;14.00;60.20;;;;;;5012198;28;20053;-75
2024/03/20 07:47:44;;;;;;;2.20;1.30;;;14.20;60.20;;;;;;5006134;28;20136;-78
2024/03/20 07:50:14;;;;;;;4.03;1.40;;;14.30;60.10;;;;;;5008786;28;20445;-76
2024/03/20 07:52:41;;;;;;;2.15;1.55;;;14.40;60.10;;;;;;5010165;28;20049;-76
2024/03/20 07:55:08;;;;;;;6.15;1.63;;;14.50;60.10;;;;;;4987131;28;20048;-74
2024/03/20 07:57:35;;;;;;;1.50;1.40;;;14.70;60.00;;;;;;5011476;28;20053;-77
2024/03/20 08:00:05;;;;;;;4.60;1.92;;;14.90;60.00;;;;;;4997374;28;20075;-75
2024/03/20 08:02:38;;;;;;;10.65;2.05;;;15.30;60.60;;;;;;5008277;28;20496;-75
2024/03/20 08:05:06;;;;;;;2.67;1.52;;;16.90;62.80;;;;;;5008374;28;20055;-77
2024/03/20 08:07:35;;;;;;;3.25;1.50;;;19.10;61.90;;;;;;5014586;28;20061;-72
2024/03/20 08:10:01;;;;;;;6.43;1.88;;;21.30;59.80;;;;;;5010574;28;20077;-74
2024/03/20 08:12:28;;;;;;;2.25;1.10;;;23.30;58.20;;;;;;5004625;28;20846;-75
2024/03/20 08:14:55;;;;;;;9.38;2.00;;;25.20;55.60;;;;;;4992751;28;20103;-75
2024/03/20 08:17:22;;;;;;;5.18;1.20;;;26.70;53.90;;;;;;4997146;28;20071;-75
2024/03/20 08:19:48;;;;;;;2.03;1.33;;;27.90;52.10;;;;;;5008438;28;20049;-76
2024/03/20 08:22:16;;;;;;;1.65;1.45;;;28.70;51.20;;;;;;4988718;28;20567;-73
2024/03/20 08:24:44;;;;;;;1.15;1.05;;;29.60;50.40;;;;;;5009224;28;20552;-76
2024/03/20 08:27:11;;;;;;;0.88;0.80;;;30.20;49.10;;;;;;5014857;28;20045;-76
2024/03/20 08:29:38;;;;;;;1.65;1.00;;;30.70;48.70;;;;;;5011220;28;20057;-74
2024/03/20 08:32:06;;;;;;;1.92;0.93;;;31.00;47.50;;;;;;5015461;28;20539;-74
2024/03/20 08:34:32;;;;;;;1.90;1.05;;;31.30;47.20;;;;;;5007287;28;20045;-74
2024/03/20 08:37:00;;;;;;;0.88;0.82;;;31.30;45.90;;;;;;5013199;28;20080;-74
2024/03/20 08:39:26;;;;;;;1.75;1.00;;;31.60;45.80;;;;;;5010040;28;20049;-77
2024/03/20 08:41:55;;;;;;;6.32;1.27;;;31.90;46.00;;;;;;5012982;28;20092;-71
2024/03/20 08:44:21;;;;;;;1.60;1.25;;;32.30;45.30;;;;;;5003673;28;20647;-74
2024/03/20 08:46:48;;;;;;;3.38;0.90;;;32.60;44.40;;;;;;5010588;28;20050;-71
2024/03/20 08:49:14;;;;;;;0.98;0.85;;;33.00;43.90;;;;;;5008954;28;20060;-75
2024/03/20 08:51:42;;;;;;;2.60;1.20;;;33.40;43.40;;;;;;5008579;28;20590;-73
2024/03/20 08:54:08;;;;;;;3.97;2.13;;;33.80;42.90;;;;;;4991688;28;20854;-78
2024/03/20 08:56:36;;;;;;;1.95;1.15;;;34.10;42.10;;;;;;4980777;28;20136;-76
2024/03/20 08:59:03;;;;;;;2.05;1.02;;;34.30;41.80;;;;;;5009023;28;20086;-76
2024/03/20 09:01:31;;;;;;;1.05;1.00;;;34.30;41.50;;;;;;5007309;28;20107;-73
2024/03/20 09:03:57;;;;;;;1.85;1.00;;;34.20;41.50;;;;;;5010719;28;20143;-76
2024/03/20 09:06:25;;;;;;;1.30;1.05;;;34.20;40.70;;;;;;5006978;28;20064;-74
2024/03/20 09:08:51;;;;;;;1.10;1.00;;;34.40;40.50;;;;;;5009412;28;20053;-72
2024/03/20 09:11:19;;;;;;;0.70;0.68;;;35.10;40.30;;;;;;5013041;28;20053;-73
2024/03/20 09:13:46;;;;;;;2.35;1.30;;;35.60;39.50;;;;;;5015596;28;20064;-75
2024/03/20 09:16:15;;;;;;;2.63;1.10;;;36.00;38.80;;;;;;4999254;28;20042;-74
2024/03/20 09:18:42;;;;;;;1.05;0.88;;;36.40;38.20;;;;;;5008054;28;20049;-72
2024/03/20 09:21:09;;;;;;;1.83;0.90;;;36.50;36.90;;;;;;5009284;28;20045;-74
2024/03/20 09:23:37;;;;;;;5.50;1.17;;;36.20;36.50;;;;;;5012921;28;20057;-73
2024/03/20 09:26:05;;;;;;;1.92;0.98;;;36.40;37.00;;;;;;5013516;28;20144;-73
2024/03/20 09:28:31;;;;;;;1.40;1.17;;;36.90;36.70;;;;;;5003992;28;20053;-73
2024/03/20 09:30:58;;;;;;;4.75;1.00;;;37.50;36.40;;;;;;4997096;28;20817;-72
2024/03/20 09:33:26;;;;;;;2.70;1.10;;;38.00;35.80;;;;;;5009508;28;20520;-76
2024/03/20 09:35:54;;;;;;;1.30;0.80;;;38.40;35.30;;;;;;5010394;28;20512;-76
2024/03/20 09:38:22;;;;;;;0.88;0.80;;;38.80;34.80;;;;;;5005935;28;20640;-72
2024/03/20 09:40:49;;;;;;;3.83;2.15;;;39.20;34.60;;;;;;4994278;28;20127;-73
2024/03/20 09:43:18;;;;;;;0.95;0.82;;;39.50;34.00;;;;;;5012076;28;20416;-72
2024/03/20 09:45:45;;;;;;;1.60;1.38;;;39.90;33.30;;;;;;5010086;28;20058;-73
2024/03/20 09:48:12;;;;;;;5.13;1.40;;;39.80;32.70;;;;;;5004851;28;20048;-70
2024/03/20 09:50:42;;;;;;;0.77;0.77;;;39.70;32.60;;;;;;5009655;28;20500;-75
2024/03/20 09:53:09;;;;;;;1.85;0.90;;;39.90;32.30;;;;;;4990700;28;20521;-72
2024/03/20 09:55:40;;;;;;;5.20;1.15;;;40.00;32.00;;;;;;5014497;28;20090;-72
2024/03/20 09:58:14;;;;;;;5.88;1.20;;;40.20;31.80;;;;;;4990227;28;20370;-73
2024/03/20 10:00:41;;;;;;;0.75;0.73;;;40.30;31.30;;;;;;5013820;28;20605;-71
2024/03/20 10:03:09;;;;;;;2.03;0.90;;;40.50;31.20;;;;;;5016848;28;20060;-72
2024/03/20 10:05:40;;;;;;;5.60;1.10;;;40.20;30.60;;;;;;4996222;28;20127;-72
2024/03/20 10:08:10;;;;;;;1.58;0.90;;;39.70;30.40;;;;;;5012387;28;20069;-74
2024/03/20 10:10:37;;;;;;;1.80;1.10;;;39.20;30.20;;;;;;4990331;28;20053;-73
2024/03/20 10:13:03;;;;;;;3.47;1.95;;;39.20;30.90;;;;;;5014411;28;20046;-72
2024/03/20 10:15:31;;;;;;;5.13;1.50;;;39.30;30.50;;;;;;5016536;28;20053;-71
2024/03/20 10:17:58;;;;;;;3.22;1.55;;;39.30;30.10;;;;;;5011986;28;20049;-72
2024/03/20 10:20:25;;;;;;;3.28;1.23;;;39.30;30.00;;;;;;5010802;28;20053;-72
2024/03/20 10:22:52;;;;;;;3.20;1.70;;;39.50;29.80;;;;;;4995793;28;20053;-71
2024/03/20 10:25:21;;;;;;;4.88;1.30;;;39.70;29.60;;;;;;5017024;28;20504;-74
2024/03/20 10:27:49;;;;;;;6.50;1.80;;;39.90;29.30;;;;;;5001104;28;20061;-71
2024/03/20 10:30:19;;;;;;;5.40;1.60;;;40.10;29.10;;;;;;4991181;28;20049;-72
2024/03/20 10:32:48;;;;;;;8.20;1.60;;;40.20;28.80;;;;;;5013817;28;20515;-74
2024/03/20 10:35:18;;;;;;;3.15;1.38;;;40.00;28.40;;;;;;5011809;28;20081;-74
2024/03/20 10:37:45;;;;;;;5.60;1.70;;;39.80;28.40;;;;;;5012764;28;20148;-73
2024/03/20 10:40:17;;;;;;;9.13;2.15;;;39.80;28.50;;;;;;5005325;28;20429;-70
2024/03/20 10:42:46;;;;;;;2.95;1.77;;;39.80;28.40;;;;;;5001042;28;20060;-78
2024/03/20 10:45:16;;;;;;;5.18;2.65;;;39.90;28.20;;;;;;5009731;28;20061;-72
2024/03/20 10:47:44;;;;;;;3.17;1.85;;;40.00;28.10;;;;;;4998687;28;20041;-73
2024/03/20 10:50:15;;;;;;;13.73;1.80;;;40.10;27.80;;;;;;4996719;28;20049;-71
2024/03/20 10:52:42;;;;;;;2.75;1.20;;;40.00;27.60;;;;;;4992599;28;20049;-73
2024/03/20 10:55:12;;;;;;;2.40;1.67;;;39.90;27.60;;;;;;5006166;28;20149;-73
2024/03/20 10:57:39;;;;;;;1.40;1.25;;;39.70;27.30;;;;;;4993838;28;20100;-73
2024/03/20 11:00:17;;;;;;;3.45;1.63;;;39.30;27.10;;;;;;5014992;28;20050;-72
2024/03/20 11:02:44;;;;;;;5.05;1.70;;;38.60;27.20;;;;;;5014719;28;20116;-74
2024/03/20 11:05:37;;;;;;;8.65;1.50;;;38.00;27.20;;;;;;4995718;28;20066;-73
2024/03/20 11:08:06;;;;;;;2.20;1.50;;;36.90;27.20;;;;;;5014785;28;20397;-71
2024/03/20 11:10:34;;;;;;;3.20;1.65;;;36.00;27.70;;;;;;5025427;28;20058;-73
2024/03/20 11:13:01;;;;;;;4.75;1.73;;;35.10;28.10;;;;;;5012588;28;20050;-73
2024/03/20 11:15:32;;;;;;;3.72;1.67;;;34.30;28.40;;;;;;5015586;28;20076;-72
2024/03/20 11:17:59;;;;;;;1.90;1.25;;;33.70;28.90;;;;;;5009585;28;20056;-72
2024/03/20 11:20:45;;;;;;;4.28;1.40;;;32.90;29.10;;;;;;4976873;28;20121;-74
2024/03/20 11:23:22;;;;;;;2.10;1.33;;;31.90;29.60;;;;;;5007952;28;20131;-73
2024/03/20 11:25:50;;;;;;;5.63;1.70;;;30.70;30.00;;;;;;4997793;28;20207;-74
2024/03/20 11:28:16;;;;;;;2.45;1.73;;;29.50;30.90;;;;;;5002581;28;20068;-72
2024/03/20 11:30:47;;;;;;;3.00;1.60;;;28.30;31.70;;;;;;5006812;28;20049;-73
2024/03/20 11:33:13;;;;;;;3.75;1.20;;;27.20;32.20;;;;;;4994617;28;20559;-74
2024/03/20 11:35:41;;;;;;;3.92;1.50;;;26.10;33.10;;;;;;5013421;28;20053;-73
2024/03/20 11:38:12;;;;;;;1.98;1.20;;;25.40;34.00;;;;;;5011801;28;20064;-72
2024/03/20 11:40:40;;;;;;;3.30;1.42;;;24.80;34.60;;;;;;5009143;28;20724;-71
2024/03/20 11:43:08;;;;;;;4.20;1.85;;;24.30;35.30;;;;;;4991692;28;20053;-72
2024/03/20 11:45:36;;;;;;;2.15;1.58;;;24.00;35.80;;;;;;5011522;28;20496;-71
2024/03/20 11:48:07;;;;;;;3.25;1.20;;;23.80;36.10;;;;;;5011679;28;20077;-73
2024/03/20 11:50:36;;;;;;;1.50;1.30;;;23.50;36.40;;;;;;5008409;28;20712;-75
2024/03/20 11:53:05;;;;;;;2.08;1.60;;;23.30;36.60;;;;;;5013974;28;20049;-71
2024/03/20 11:55:34;;;;;;;2.65;1.40;;;23.20;36.90;;;;;;5016799;28;20049;-73
2024/03/20 11:58:02;;;;;;;1.35;1.08;;;23.20;37.10;;;;;;5018954;28;20049;-74
2024/03/20 12:00:33;;;;;;;3.33;1.00;;;23.10;37.10;;;;;;5007482;28;20049;-70
2024/03/20 12:02:59;;;;;;;4.07;2.35;;;23.00;37.10;;;;;;5009248;28;20061;-73
2024/03/20 12:05:28;;;;;;;13.77;1.83;;;23.00;37.30;;;;;;5011546;28;20200;-73
2024/03/20 12:07:55;;;;;;;2.50;1.50;;;23.00;37.40;;;;;;5010176;28;20508;-71
2024/03/20 12:10:36;;;;;;;1.48;1.10;;;23.00;37.30;;;;;;4993236;28;20664;-74
2024/03/20 12:13:10;;;;;;;4.53;2.30;;;23.00;37.30;;;;;;5013873;28;20037;-71
2024/03/20 12:15:38;;;;;;;3.28;1.30;;;23.00;37.40;;;;;;4993897;28;20111;-74
2024/03/20 12:18:05;;;;;;;1.98;1.17;;;23.10;37.60;;;;;;4993227;28;20053;-73
2024/03/20 12:20:33;;;;;;;2.47;1.45;;;23.10;37.60;;;;;;5000645;28;21049;-75
2024/03/20 12:23:03;;;;;;;6.97;2.05;;;23.20;37.60;;;;;;5002164;28;20084;-72
2024/03/20 12:25:31;;;;;;;7.30;2.65;;;23.20;37.70;;;;;;4993846;28;20069;-74
2024/03/20 12:27:57;;;;;;;8.07;3.92;;;23.20;37.60;;;;;;4989105;28;20092;-75
2024/03/20 12:30:27;;;;;;;3.97;2.28;;;23.20;37.70;;;;;;4984253;28;20057;-72
2024/03/20 12:32:53;;;;;;;4.18;1.33;;;23.30;37.80;;;;;;5003569;28;20146;-72
2024/03/20 12:35:20;;;;;;;5.75;1.63;;;23.40;38.50;;;;;;5011140;28;20056;-74
2024/03/20 12:37:48;;;;;;;4.97;2.00;;;23.40;37.90;;;;;;4993257;28;20073;-73
2024/03/20 12:40:18;;;;;;;3.53;2.40;;;23.50;37.90;;;;;;5009688;28;20065;-76
2024/03/20 12:42:45;;;;;;;3.33;2.60;;;23.50;37.90;;;;;;5004531;28;20180;-73
2024/03/20 12:45:13;;;;;;;4.30;1.67;;;23.60;38.00;;;;;;4988504;28;20045;-76
2024/03/20 12:47:40;;;;;;;5.40;2.97;;;23.60;38.00;;;;;;4994158;28;20042;-71
2024/03/20 12:50:11;;;;;;;3.20;1.60;;;23.70;38.00;;;;;;5006330;28;20060;-75